Time;durP1;ratioP1;P1;durP2;ratioP2;P2;SDS_P1;SDS_P2;PMS_P1;PMS_P2;Temp;Humidity;BMP_temperature;BMP_pressure;BME280_temperature;BME280_humidity;BME280_pressure;Samples;Min_cycle;Max_cycle;Signal;HPM_P1;HPM_P2
2024/04/14 00:02:54;;;;;;;11.20;3.70;;;;;;;;;;22375420;26;20000;-45
2024/04/14 00:12:56;;;;;;;16.05;4.00;;;;;;;;;;22397675;26;20018;-46
2024/04/14 00:22:59;;;;;;;6.53;2.67;;;;;;;;;;22371649;26;20423;-44
2024/04/14 00:33:00;;;;;;;10.65;3.40;;;;;;;;;;22398192;26;20003;-45
2024/04/14 00:54:00;;;;;;;9.32;4.03;;;;;;;;;;22391471;26;19995;-44
2024/04/14 01:04:03;;;;;;;10.97;4.73;;;;;;;;;;22388320;26;20442;-44
2024/04/14 01:14:05;;;;;;;8.65;3.28;;;;;;;;;;22395538;26;20031;-44
2024/04/14 01:24:07;;;;;;;11.43;2.72;;;;;;;;;;22410205;26;20015;-44
2024/04/14 01:34:08;;;;;;;9.95;3.38;;;;;;;;;;22408265;26;20011;-44
2024/04/14 01:44:10;;;;;;;9.90;3.10;;;;;;;;;;22397004;26;20026;-44
2024/04/14 01:54:12;;;;;;;9.35;2.50;;;;;;;;;;22407277;26;20011;-43
2024/04/14 02:04:13;;;;;;;6.45;3.00;;;;;;;;;;22406636;26;20407;-45
2024/04/14 02:14:15;;;;;;;6.10;2.22;;;;;;;;;;22404419;26;20022;-44
2024/04/14 02:24:17;;;;;;;7.93;2.65;;;;;;;;;;22400944;26;20014;-43
2024/04/14 02:34:18;;;;;;;7.88;2.35;;;;;;;;;;22399054;26;20003;-44
2024/04/14 02:44:21;;;;;;;7.18;2.50;;;;;;;;;;22384302;26;20543;-45
2024/04/14 02:54:23;;;;;;;11.65;2.35;;;;;;;;;;22385628;26;20003;-44
2024/04/14 03:04:25;;;;;;;11.23;3.10;;;;;;;;;;22398306;26;20007;-46
2024/04/14 03:14:26;;;;;;;9.38;3.70;;;;;;;;;;22384493;26;19996;-46
2024/04/14 03:24:28;;;;;;;8.40;2.13;;;;;;;;;;22396703;26;20090;-45
2024/04/14 03:34:29;;;;;;;7.32;2.15;;;;;;;;;;22389906;26;20011;-46
2024/04/14 03:44:31;;;;;;;7.13;2.53;;;;;;;;;;22364204;26;19999;-46
2024/04/14 03:54:33;;;;;;;8.68;2.78;;;;;;;;;;22397015;26;20113;-44
2024/04/14 04:04:36;;;;;;;7.47;2.22;;;;;;;;;;22396726;26;20011;-44
2024/04/14 04:14:37;;;;;;;7.25;2.40;;;;;;;;;;22394691;26;20004;-46
2024/04/14 04:24:39;;;;;;;8.27;2.45;;;;;;;;;;22380176;26;20454;-45
2024/04/14 04:34:40;;;;;;;9.70;2.70;;;;;;;;;;22387348;26;20014;-46
2024/04/14 04:44:42;;;;;;;7.80;3.17;;;;;;;;;;22400863;26;19999;-44
2024/04/14 04:54:43;;;;;;;12.32;2.83;;;;;;;;;;22405442;26;20069;-45
2024/04/14 05:04:45;;;;;;;6.35;3.17;;;;;;;;;;22407598;26;20070;-44
2024/04/14 05:14:46;;;;;;;9.23;3.00;;;;;;;;;;22404208;26;20000;-45
2024/04/14 05:24:48;;;;;;;9.70;2.92;;;;;;;;;;22401630;26;20010;-44
2024/04/14 05:34:52;;;;;;;14.88;3.25;;;;;;;;;;22405544;26;20010;-45
2024/04/14 05:44:54;;;;;;;8.63;2.85;;;;;;;;;;22380567;26;20091;-45
2024/04/14 05:54:56;;;;;;;5.00;2.88;;;;;;;;;;22389282;26;20004;-45
2024/04/14 06:04:57;;;;;;;10.32;2.90;;;;;;;;;;22404782;26;20027;-45
2024/04/14 06:15:00;;;;;;;8.90;2.95;;;;;;;;;;22401014;26;19999;-49
2024/04/14 06:25:01;;;;;;;9.10;3.28;;;;;;;;;;22387301;26;20427;-44
2024/04/14 06:35:03;;;;;;;8.55;2.88;;;;;;;;;;22394881;26;20003;-44
2024/04/14 06:45:06;;;;;;;10.83;3.50;;;;;;;;;;22403238;26;20394;-43
2024/04/14 06:55:11;;;;;;;11.73;3.25;;;;;;;;;;22400298;26;20023;-43
2024/04/14 07:05:13;;;;;;;7.00;3.00;;;;;;;;;;22399750;26;20003;-44
2024/04/14 07:15:14;;;;;;;10.20;3.28;;;;;;;;;;22385112;26;20505;-45
2024/04/14 07:25:16;;;;;;;10.50;3.63;;;;;;;;;;22373922;26;20049;-46
2024/04/14 07:35:17;;;;;;;7.32;3.00;;;;;;;;;;22396710;26;20015;-51
2024/04/14 07:45:19;;;;;;;17.02;3.72;;;;;;;;;;22378446;26;20433;-50
2024/04/14 07:55:20;;;;;;;10.02;2.97;;;;;;;;;;22397500;26;20003;-51
2024/04/14 08:05:22;;;;;;;7.80;2.97;;;;;;;;;;22384287;26;20010;-51
2024/04/14 08:15:24;;;;;;;11.57;2.90;;;;;;;;;;22390178;26;20004;-50
2024/04/14 08:25:25;;;;;;;8.45;2.53;;;;;;;;;;22407728;26;20319;-51
2024/04/14 08:35:27;;;;;;;7.40;2.85;;;;;;;;;;22412322;26;19996;-52
2024/04/14 08:45:30;;;;;;;7.97;2.92;;;;;;;;;;22398767;26;20038;-50
2024/04/14 08:55:31;;;;;;;12.15;2.85;;;;;;;;;;22406267;26;20000;-51
2024/04/14 09:05:37;;;;;;;10.95;2.22;;;;;;;;;;22361187;26;20019;-52
2024/04/14 09:15:42;;;;;;;8.55;2.00;;;;;;;;;;22362953;26;20192;-50
2024/04/14 09:25:44;;;;;;;11.48;2.42;;;;;;;;;;22375649;26;20057;-52
2024/04/14 09:35:49;;;;;;;10.40;2.28;;;;;;;;;;22386661;26;20010;-54
2024/04/14 09:45:50;;;;;;;8.27;2.28;;;;;;;;;;22393554;26;20035;-52
2024/04/14 09:55:53;;;;;;;9.07;2.00;;;;;;;;;;22404348;26;20319;-50
2024/04/14 10:05:56;;;;;;;8.63;1.63;;;;;;;;;;22394432;26;20075;-51
2024/04/14 10:16:01;;;;;;;6.30;1.73;;;;;;;;;;22405819;26;20007;-53
2024/04/14 10:26:02;;;;;;;9.35;1.98;;;;;;;;;;22397733;26;20022;-53
2024/04/14 10:36:05;;;;;;;9.80;1.58;;;;;;;;;;22380905;26;20014;-52
2024/04/14 10:46:08;;;;;;;8.40;1.60;;;;;;;;;;22397627;26;20049;-51
2024/04/14 10:56:11;;;;;;;9.80;2.28;;;;;;;;;;22399600;26;20004;-51
2024/04/14 11:06:14;;;;;;;7.45;1.70;;;;;;;;;;22397226;26;20003;-49
2024/04/14 11:16:16;;;;;;;10.52;2.17;;;;;;;;;;22379527;26;20393;-52
2024/04/14 11:26:18;;;;;;;10.38;2.22;;;;;;;;;;22391334;26;20405;-52
2024/04/14 11:36:20;;;;;;;9.10;2.00;;;;;;;;;;22390669;26;20000;-51
2024/04/14 11:46:22;;;;;;;8.63;2.33;;;;;;;;;;22364958;26;20003;-50
2024/04/14 11:56:24;;;;;;;5.53;2.03;;;;;;;;;;22396068;26;20348;-54
2024/04/14 12:06:26;;;;;;;7.47;2.13;;;;;;;;;;22390163;26;20000;-52
2024/04/14 12:16:47;;;;;;;12.57;2.92;;;;;;;;;;22391632;26;20430;-53
2024/04/14 12:26:49;;;;;;;14.00;3.00;;;;;;;;;;22393647;26;20011;-52
2024/04/14 12:36:50;;;;;;;12.20;2.33;;;;;;;;;;22394191;26;20011;-51
2024/04/14 12:46:52;;;;;;;9.10;2.28;;;;;;;;;;22395251;26;20080;-52
2024/04/14 12:56:56;;;;;;;10.10;2.28;;;;;;;;;;22393205;26;20003;-52
2024/04/14 13:06:58;;;;;;;10.48;2.90;;;;;;;;;;22404156;26;20072;-53
2024/04/14 13:16:59;;;;;;;7.40;3.28;;;;;;;;;;22411353;26;20335;-52
2024/04/14 13:27:01;;;;;;;8.60;2.20;;;;;;;;;;22411771;26;20563;-55
2024/04/14 13:37:03;;;;;;;10.20;2.42;;;;;;;;;;22404581;26;19999;-54
2024/04/14 13:47:04;;;;;;;10.27;3.38;;;;;;;;;;22389705;26;20015;-51
2024/04/14 13:57:06;;;;;;;10.82;2.00;;;;;;;;;;22399815;26;20015;-51
2024/04/14 14:07:09;;;;;;;10.13;2.33;;;;;;;;;;22383116;26;20003;-53
2024/04/14 14:17:13;;;;;;;9.93;2.28;;;;;;;;;;22402670;26;21670;-51
2024/04/14 14:27:15;;;;;;;7.60;2.58;;;;;;;;;;22391352;26;20435;-52
2024/04/14 14:37:16;;;;;;;10.23;2.20;;;;;;;;;;22384414;26;20077;-52
2024/04/14 14:47:18;;;;;;;4.45;1.33;;;;;;;;;;22405539;26;20015;-53
2024/04/14 14:57:21;;;;;;;7.65;1.80;;;;;;;;;;22405033;26;20015;-54
2024/04/14 15:07:22;;;;;;;7.07;2.25;;;;;;;;;;22404803;26;20102;-52
2024/04/14 15:17:23;;;;;;;7.80;2.33;;;;;;;;;;22396731;26;20071;-54
2024/04/14 15:27:26;;;;;;;7.55;1.50;;;;;;;;;;22384197;26;20284;-51
2024/04/14 15:37:28;;;;;;;5.85;1.58;;;;;;;;;;22391413;26;20069;-51
2024/04/14 15:47:29;;;;;;;7.35;1.83;;;;;;;;;;22363140;26;20399;-54
2024/04/14 15:57:32;;;;;;;8.05;2.25;;;;;;;;;;22398964;26;20011;-52
2024/04/14 16:07:34;;;;;;;4.07;1.60;;;;;;;;;;22400162;26;20003;-51
2024/04/14 16:17:35;;;;;;;8.05;1.30;;;;;;;;;;22401253;26;20011;-51
2024/04/14 16:27:37;;;;;;;6.60;2.00;;;;;;;;;;22398399;26;20039;-50
2024/04/14 16:37:38;;;;;;;6.90;1.75;;;;;;;;;;22396004;26;20126;-51
2024/04/14 16:47:42;;;;;;;5.47;1.50;;;;;;;;;;22413579;26;20004;-51
2024/04/14 16:57:44;;;;;;;5.20;1.20;;;;;;;;;;22409935;26;20080;-52
2024/04/14 17:07:45;;;;;;;6.35;1.77;;;;;;;;;;22408328;26;20463;-54
2024/04/14 17:17:47;;;;;;;5.97;1.90;;;;;;;;;;22368676;26;20000;-53
2024/04/14 17:27:48;;;;;;;7.35;2.30;;;;;;;;;;22381899;26;20026;-56
2024/04/14 17:37:50;;;;;;;10.20;2.30;;;;;;;;;;22381699;26;20515;-54
2024/04/14 17:47:51;;;;;;;8.02;3.25;;;;;;;;;;22379548;26;20026;-56
2024/04/14 17:57:53;;;;;;;10.02;1.98;;;;;;;;;;22391469;26;20371;-54
2024/04/14 18:07:55;;;;;;;6.15;1.45;;;;;;;;;;22379396;26;20493;-56
2024/04/14 18:17:59;;;;;;;5.43;1.42;;;;;;;;;;22387877;26;20036;-54
2024/04/14 18:28:02;;;;;;;7.45;1.60;;;;;;;;;;22383652;26;20400;-53
2024/04/14 18:38:04;;;;;;;8.88;1.58;;;;;;;;;;22395009;26;20139;-55
2024/04/14 18:48:07;;;;;;;11.97;2.80;;;;;;;;;;22384875;26;20019;-54
2024/04/14 18:58:09;;;;;;;7.80;2.42;;;;;;;;;;22387133;26;20032;-55
2024/04/14 19:08:10;;;;;;;7.50;2.35;;;;;;;;;;22357827;26;20004;-56
2024/04/14 19:18:12;;;;;;;14.70;2.33;;;;;;;;;;22390342;26;20039;-55
2024/04/14 19:28:13;;;;;;;11.95;3.03;;;;;;;;;;22381897;26;20029;-52
2024/04/14 19:38:15;;;;;;;10.13;3.60;;;;;;;;;;22386178;26;20003;-44
2024/04/14 19:48:18;;;;;;;11.00;3.15;;;;;;;;;;22341712;26;20102;-46
2024/04/14 19:58:19;;;;;;;8.10;3.75;;;;;;;;;;22344733;26;20022;-46
2024/04/14 20:08:23;;;;;;;12.07;3.40;;;;;;;;;;22360066;26;20411;-44
2024/04/14 20:18:25;;;;;;;12.73;3.60;;;;;;;;;;22359477;26;20114;-43
2024/04/14 20:28:26;;;;;;;12.85;4.22;;;;;;;;;;22365064;26;20335;-44
2024/04/14 20:38:27;;;;;;;15.38;3.55;;;;;;;;;;22349274;26;21134;-43
2024/04/14 20:48:29;;;;;;;11.90;5.15;;;;;;;;;;22363084;26;20009;-43
2024/04/14 20:58:30;;;;;;;10.73;4.70;;;;;;;;;;22363552;26;20370;-44
2024/04/14 21:08:32;;;;;;;14.48;4.90;;;;;;;;;;22374890;26;20018;-45
2024/04/14 21:18:34;;;;;;;15.25;3.95;;;;;;;;;;22366011;26;20092;-43
2024/04/14 21:28:36;;;;;;;15.02;4.43;;;;;;;;;;22404755;26;20422;-43
2024/04/14 21:38:37;;;;;;;13.45;5.70;;;;;;;;;;22408031;26;20427;-43
2024/04/14 21:48:39;;;;;;;10.82;3.97;;;;;;;;;;22410673;26;20035;-43
2024/04/14 21:58:40;;;;;;;13.15;3.75;;;;;;;;;;22391358;26;20332;-43
2024/04/14 22:08:42;;;;;;;14.68;4.97;;;;;;;;;;22404597;26;20018;-43
2024/04/14 22:18:44;;;;;;;16.00;5.43;;;;;;;;;;22356394;26;20317;-43
2024/04/14 22:28:46;;;;;;;11.20;4.25;;;;;;;;;;22333978;26;20077;-44
2024/04/14 22:38:48;;;;;;;18.95;4.63;;;;;;;;;;22346053;26;20345;-44
2024/04/14 22:48:49;;;;;;;11.50;4.00;;;;;;;;;;22351651;26;20384;-44
2024/04/14 22:58:50;;;;;;;7.82;4.03;;;;;;;;;;22324124;26;20015;-43
2024/04/14 23:08:53;;;;;;;13.43;4.30;;;;;;;;;;22347695;26;20015;-44
2024/04/14 23:18:56;;;;;;;10.73;3.20;;;;;;;;;;22347773;26;20007;-45
2024/04/14 23:28:58;;;;;;;11.65;3.60;;;;;;;;;;22321887;26;20000;-45
2024/04/14 23:38:59;;;;;;;13.05;4.32;;;;;;;;;;22331823;26;20102;-44
2024/04/14 23:49:01;;;;;;;10.80;3.95;;;;;;;;;;22312726;26;20014;-43
2024/04/14 23:59:02;;;;;;;11.85;3.40;;;;;;;;;;22328723;26;19999;-44
